createdAt,value
2023-02-18T00:00:44.342Z,76.03
2023-02-18T00:01:45.935Z,76.37
2023-02-18T00:02:47.652Z,76.35
2023-02-18T00:03:49.854Z,76.31
2023-02-18T00:04:54.275Z,76.20
2023-02-18T00:05:56.101Z,75.93
2023-02-18T00:06:57.647Z,76.31
2023-02-18T00:07:59.141Z,76.14
2023-02-18T00:09:02.715Z,76.33
2023-02-18T00:10:07.716Z,76.25
2023-02-18T00:11:09.657Z,76.11
2023-02-18T00:12:11.834Z,76.03
2023-02-18T00:13:13.336Z,75.99
2023-02-18T00:14:16.340Z,76.14
2023-02-18T00:15:17.817Z,76.41
2023-02-18T00:16:20.054Z,76.68
2023-02-18T00:17:21.584Z,76.61
2023-02-18T00:18:23.008Z,76.64
2023-02-18T00:19:24.512Z,76.79
2023-02-18T00:20:26.518Z,76.40
2023-02-18T00:21:28.501Z,76.36
2023-02-18T00:22:30.010Z,76.49
2023-02-18T00:23:31.896Z,76.83
2023-02-18T00:24:33.332Z,76.65
2023-02-18T00:25:34.876Z,76.59
2023-02-18T00:26:36.422Z,76.49
2023-02-18T00:27:37.860Z,77.20
2023-02-18T00:28:39.768Z,76.93
2023-02-18T00:29:41.214Z,76.91
2023-02-18T00:30:43.694Z,77.02
2023-02-18T00:31:45.740Z,76.91
2023-02-18T00:32:47.344Z,77.21
2023-02-18T00:33:48.921Z,76.84
2023-02-18T00:34:50.401Z,76.95
2023-02-18T00:35:51.924Z,76.66
2023-02-18T00:36:53.364Z,77.11
2023-02-18T00:37:54.850Z,77.20
2023-02-18T00:39:01.659Z,77.15
2023-02-18T00:40:03.940Z,76.82
2023-02-18T00:41:06.786Z,77.12
2023-02-18T00:42:08.286Z,76.99
2023-02-18T00:43:10.357Z,77.24
2023-02-18T00:44:12.885Z,77.41
2023-02-18T00:45:14.546Z,76.88
2023-02-18T00:46:16.565Z,76.94
2023-02-18T00:47:18.006Z,77.05
2023-02-18T00:48:19.849Z,77.23
2023-02-18T00:49:21.339Z,77.31
2023-02-18T00:50:23.149Z,77.36
2023-02-18T00:51:25.490Z,76.94
2023-02-18T00:52:26.992Z,76.69
2023-02-18T00:53:29.469Z,76.70
2023-02-18T00:54:31.227Z,77.03
2023-02-18T00:55:32.907Z,77.27
2023-02-18T00:56:34.417Z,77.11
2023-02-18T00:57:36.163Z,77.02
2023-02-18T00:58:38.331Z,77.04
2023-02-18T00:59:39.814Z,77.06
2023-02-18T01:00:41.645Z,77.07
2023-02-18T01:01:43.239Z,76.68
2023-02-18T01:02:44.730Z,77.12
2023-02-18T01:03:46.598Z,76.83
2023-02-18T01:04:48.334Z,76.96
2023-02-18T01:05:50.421Z,76.90
2023-02-18T01:06:52.478Z,76.58
2023-02-18T01:07:53.934Z,76.94
2023-02-18T01:08:55.442Z,76.67
2023-02-18T01:09:56.882Z,76.69
2023-02-18T01:10:59.618Z,77.06
2023-02-18T01:12:01.092Z,76.94
2023-02-18T01:13:04.367Z,76.74
2023-02-18T01:14:05.952Z,77.02
2023-02-18T01:15:08.049Z,76.85
2023-02-18T01:16:11.026Z,77.01
2023-02-18T01:17:12.724Z,76.96
2023-02-18T01:18:14.738Z,77.27
2023-02-18T01:19:16.211Z,77.38
2023-02-18T01:20:17.992Z,77.28
2023-02-18T01:21:19.661Z,77.34
2023-02-18T01:22:21.155Z,77.47
2023-02-18T01:23:23.218Z,77.45
2023-02-18T01:24:24.746Z,77.60
2023-02-18T01:25:26.298Z,77.75
2023-02-18T01:26:27.774Z,77.78
2023-02-18T01:27:29.443Z,77.79
2023-02-18T01:28:31.074Z,77.88
2023-02-18T01:29:32.599Z,77.93
2023-02-18T01:30:34.673Z,77.83
2023-02-18T01:31:36.247Z,77.83
2023-02-18T01:32:37.958Z,77.88
2023-02-18T01:33:39.864Z,77.73
2023-02-18T01:34:41.407Z,77.51
2023-02-18T01:35:42.979Z,77.71
2023-02-18T01:36:44.585Z,78.04
2023-02-18T01:37:48.082Z,78.21
2023-02-18T01:38:49.758Z,77.96
2023-02-18T01:39:51.216Z,78.07
2023-02-18T01:40:53.360Z,77.82
2023-02-18T01:41:54.846Z,77.96
2023-02-18T01:42:56.836Z,77.87
2023-02-18T01:44:25.267Z,78.86
2023-02-18T01:45:37.242Z,79.54
2023-02-18T01:46:38.730Z,79.64
2023-02-18T01:47:40.204Z,80.04
2023-02-18T01:48:58.466Z,80.18
2023-02-18T01:50:00.170Z,80.23
2023-02-18T01:51:19.676Z,80.46
2023-02-18T01:52:26.057Z,80.31
2023-02-18T01:53:35.054Z,80.46
2023-02-18T01:54:40.685Z,80.34
2023-02-18T01:55:42.406Z,80.51
2023-02-18T01:56:54.494Z,80.68
2023-02-18T01:57:56.245Z,80.79
2023-02-18T01:59:01.727Z,81.41
2023-02-18T02:00:12.814Z,81.64
2023-02-18T02:01:14.426Z,81.98
2023-02-18T02:02:20.416Z,82.28
2023-02-18T02:03:22.120Z,82.65
2023-02-18T02:04:24.642Z,82.80
2023-02-18T02:05:31.706Z,82.78
2023-02-18T02:06:33.631Z,83.36
2023-02-18T02:07:35.427Z,83.69
2023-02-18T02:08:37.006Z,83.49
2023-02-18T02:09:41.119Z,83.39
2023-02-18T02:11:00.160Z,83.92
2023-02-18T02:12:17.958Z,83.97
2023-02-18T02:13:40.387Z,83.96
2023-02-18T02:14:44.920Z,83.71
2023-02-18T02:15:57.812Z,83.95
2023-02-18T02:17:17.647Z,83.64
2023-02-18T02:18:44.098Z,83.65
2023-02-18T02:20:00.508Z,84.24
2023-02-18T02:21:04.896Z,84.41
2023-02-18T02:22:31.200Z,84.29
2023-02-18T02:23:41.972Z,84.06
2023-02-18T02:25:05.225Z,84.26
2023-02-18T02:26:28.758Z,84.21
2023-02-18T02:28:06.021Z,83.95
2023-02-18T02:29:39.604Z,84.25
2023-02-18T02:30:47.073Z,84.32
2023-02-18T02:32:06.479Z,84.69
2023-02-18T02:33:38.887Z,85.21
2023-02-18T02:34:47.921Z,84.94
2023-02-18T02:35:49.431Z,85.22
2023-02-18T02:36:56.347Z,85.65
2023-02-18T02:38:03.229Z,85.83
2023-02-18T02:39:13.817Z,85.98
2023-02-18T02:40:33.611Z,86.27
2023-02-18T02:42:06.135Z,86.17
2023-02-18T02:43:42.516Z,86.29
2023-02-18T02:44:43.996Z,86.83
2023-02-18T02:45:55.175Z,86.93
2023-02-18T02:47:07.656Z,86.90
2023-02-18T02:48:18.099Z,86.96
2023-02-18T02:49:27.354Z,86.80
2023-02-18T02:50:39.874Z,87.03
2023-02-18T02:51:49.755Z,86.76
2023-02-18T02:52:57.591Z,87.09
2023-02-18T02:54:21.721Z,87.12
2023-02-18T02:55:23.706Z,86.92
2023-02-18T02:56:25.621Z,86.71
2023-02-18T02:57:27.049Z,86.21
2023-02-18T02:58:28.533Z,86.51
2023-02-18T02:59:30.853Z,86.49
2023-02-18T03:00:32.306Z,86.30
2023-02-18T03:01:41.875Z,86.47
2023-02-18T03:02:49.360Z,86.07
2023-02-18T03:04:18.104Z,85.94
2023-02-18T03:05:22.475Z,85.99
2023-02-18T03:06:42.066Z,86.23
2023-02-18T03:08:08.830Z,85.76
2023-02-18T03:09:47.587Z,85.68
2023-02-18T03:11:03.910Z,85.49
2023-02-18T03:12:23.739Z,85.57
2023-02-18T03:13:54.371Z,85.29
2023-02-18T03:15:08.363Z,84.87
2023-02-18T03:16:53.197Z,85.36
2023-02-18T03:18:11.321Z,85.17
2023-02-18T03:19:18.495Z,85.47
2023-02-18T03:20:32.430Z,85.43
2023-02-18T03:21:45.309Z,84.83
2023-02-18T03:22:49.393Z,84.69
2023-02-18T03:24:02.050Z,84.52
2023-02-18T03:25:05.090Z,84.69
2023-02-18T03:26:09.266Z,84.60
2023-02-18T03:27:18.792Z,84.16
2023-02-18T03:28:22.809Z,83.67
2023-02-18T03:29:25.978Z,83.15
2023-02-18T03:30:32.820Z,83.16
2023-02-18T03:31:38.866Z,83.17
2023-02-18T03:32:40.600Z,82.85
2023-02-18T03:33:50.067Z,83.10
2023-02-18T03:34:56.658Z,83.13
2023-02-18T03:35:58.246Z,82.98
2023-02-18T03:37:01.226Z,82.71
2023-02-18T03:38:07.504Z,83.17
2023-02-18T03:39:14.164Z,83.09
2023-02-18T03:40:18.944Z,82.94
2023-02-18T03:41:20.614Z,82.76
2023-02-18T03:42:27.720Z,82.98
2023-02-18T03:43:29.418Z,83.18
2023-02-18T03:44:32.152Z,82.67
2023-02-18T03:45:33.764Z,82.53
2023-02-18T03:46:38.090Z,82.41
2023-02-18T03:47:39.634Z,82.69
2023-02-18T03:48:41.117Z,82.22
2023-02-18T03:49:42.669Z,82.21
2023-02-18T03:50:44.109Z,82.10
2023-02-18T03:51:45.639Z,81.96
2023-02-18T03:52:47.149Z,82.20
2023-02-18T03:53:48.762Z,82.24
2023-02-18T03:54:50.997Z,82.24
2023-02-18T03:55:52.426Z,82.45
2023-02-18T03:56:53.869Z,82.29
2023-02-18T03:57:55.288Z,82.75
2023-02-18T03:58:56.852Z,83.11
2023-02-18T03:59:58.354Z,82.93
2023-02-18T04:00:59.851Z,83.08
2023-02-18T04:02:01.381Z,83.03
2023-02-18T04:03:02.915Z,83.19
2023-02-18T04:04:04.582Z,83.31
2023-02-18T04:05:07.094Z,83.70
2023-02-18T04:06:09.287Z,83.58
2023-02-18T04:07:10.917Z,83.78
2023-02-18T04:08:12.354Z,83.73
2023-02-18T04:09:13.843Z,83.55
2023-02-18T04:10:15.349Z,83.50
2023-02-18T04:11:16.951Z,83.60
2023-02-18T04:12:18.487Z,83.63
2023-02-18T04:13:20.083Z,83.46
2023-02-18T04:14:21.528Z,83.28
2023-02-18T04:15:23.020Z,83.00
2023-02-18T04:16:24.558Z,82.96
2023-02-18T04:17:26.359Z,82.75
2023-02-18T04:18:27.838Z,82.91
2023-02-18T04:19:29.248Z,83.04
2023-02-18T04:20:31.390Z,82.88
2023-02-18T04:21:33.931Z,82.99
2023-02-18T04:22:35.410Z,83.13
2023-02-18T04:23:36.856Z,83.38
2023-02-18T04:24:38.325Z,83.88
2023-02-18T04:25:40.000Z,83.95
2023-02-18T04:26:41.920Z,84.15
2023-02-18T04:27:43.397Z,84.01
2023-02-18T04:28:45.171Z,84.13
2023-02-18T04:29:46.625Z,84.15
2023-02-18T04:30:48.265Z,84.31
2023-02-18T04:31:49.815Z,84.53
2023-02-18T04:32:51.285Z,84.42
2023-02-18T04:33:52.716Z,84.62
2023-02-18T04:34:54.161Z,84.78
2023-02-18T04:35:55.628Z,84.58
2023-02-18T04:36:57.442Z,84.43
2023-02-18T04:37:58.926Z,84.40
2023-02-18T04:39:00.430Z,84.46
2023-02-18T04:40:02.421Z,84.77
2023-02-18T04:41:04.000Z,84.40
2023-02-18T04:42:08.972Z,84.30
2023-02-18T04:43:10.466Z,84.26
2023-02-18T04:44:11.976Z,84.09
2023-02-18T04:45:13.833Z,84.07
2023-02-18T04:46:15.390Z,84.05
2023-02-18T04:47:16.873Z,84.07
2023-02-18T04:48:18.379Z,83.97
2023-02-18T04:49:19.871Z,83.55
2023-02-18T04:50:22.122Z,83.70
2023-02-18T04:51:23.760Z,83.40
2023-02-18T04:52:25.483Z,83.38
2023-02-18T04:53:27.006Z,82.97
2023-02-18T04:54:28.737Z,82.85
2023-02-18T04:55:30.270Z,82.76
2023-02-18T04:56:31.707Z,82.69
2023-02-18T04:57:33.295Z,82.72
2023-02-18T04:58:34.771Z,82.07
2023-02-18T04:59:36.724Z,82.04
2023-02-18T05:00:38.149Z,81.74
2023-02-18T05:01:39.687Z,81.80
2023-02-18T05:02:41.200Z,82.21
2023-02-18T05:03:42.649Z,82.19
2023-02-18T05:04:44.555Z,81.97
2023-02-18T05:05:46.026Z,81.78
2023-02-18T05:06:47.577Z,81.53
2023-02-18T05:07:49.021Z,81.67
2023-02-18T05:08:50.533Z,81.92
2023-02-18T05:09:52.066Z,82.47
2023-02-18T05:10:53.517Z,82.50
2023-02-18T05:11:54.990Z,82.69
2023-02-18T05:12:56.467Z,82.73
2023-02-18T05:13:58.313Z,82.69
2023-02-18T05:14:59.773Z,83.15
2023-02-18T05:16:01.566Z,83.42
2023-02-18T05:17:03.318Z,83.46
2023-02-18T05:18:05.006Z,83.86
2023-02-18T05:19:07.163Z,84.34
2023-02-18T05:20:10.031Z,84.52
2023-02-18T05:21:12.197Z,84.45
2023-02-18T05:22:13.672Z,84.51
2023-02-18T05:23:15.170Z,84.61
2023-02-18T05:24:16.650Z,84.59
2023-02-18T05:25:18.218Z,84.68
2023-02-18T05:26:19.709Z,85.03
2023-02-18T05:27:21.139Z,85.06
2023-02-18T05:28:22.807Z,85.23
2023-02-18T05:29:24.334Z,85.32
2023-02-18T05:30:25.819Z,85.14
2023-02-18T05:31:27.366Z,85.59
2023-02-18T05:32:28.909Z,85.86
2023-02-18T05:33:30.775Z,85.55
2023-02-18T05:34:32.254Z,85.03
2023-02-18T05:35:33.705Z,85.47
2023-02-18T05:36:35.192Z,85.26
2023-02-18T05:37:36.635Z,85.31
2023-02-18T05:38:38.412Z,85.41
2023-02-18T05:39:41.010Z,85.39
2023-02-18T05:40:42.421Z,85.81
2023-02-18T05:41:43.878Z,85.86
2023-02-18T05:42:45.297Z,85.70
2023-02-18T05:44:05.658Z,85.87
2023-02-18T05:45:07.516Z,85.35
2023-02-18T05:46:09.308Z,85.43
2023-02-18T05:47:12.457Z,86.09
2023-02-18T05:48:13.973Z,86.72
2023-02-18T05:49:15.693Z,86.56
2023-02-18T05:50:17.567Z,86.42
2023-02-18T05:51:19.059Z,86.24
2023-02-18T05:52:22.042Z,86.46
2023-02-18T05:53:23.431Z,86.65
2023-02-18T05:54:25.481Z,86.60
2023-02-18T05:55:26.929Z,86.88
2023-02-18T05:56:28.388Z,86.86
2023-02-18T05:57:29.860Z,87.07
2023-02-18T05:58:31.274Z,86.68
2023-02-18T05:59:33.090Z,86.98
2023-02-18T06:00:34.635Z,87.04
2023-02-18T06:01:36.183Z,87.30
2023-02-18T06:02:38.140Z,87.25
2023-02-18T06:03:39.634Z,87.16
2023-02-18T06:04:41.092Z,87.08
2023-02-18T06:05:42.549Z,86.90
2023-02-18T06:06:44.328Z,86.96
2023-02-18T06:07:45.832Z,86.65
2023-02-18T06:08:47.609Z,86.56
2023-02-18T06:09:49.068Z,86.69
2023-02-18T06:10:50.575Z,86.85
2023-02-18T06:11:52.262Z,87.11
2023-02-18T06:12:53.697Z,86.85
2023-02-18T06:13:55.213Z,86.96
2023-02-18T06:14:56.717Z,86.79
2023-02-18T06:15:58.253Z,86.91
2023-02-18T06:16:59.842Z,86.86
2023-02-18T06:18:01.371Z,86.91
2023-02-18T06:19:03.596Z,86.78
2023-02-18T06:20:05.634Z,87.01
2023-02-18T06:21:07.297Z,86.82
2023-02-18T06:22:08.785Z,86.72
2023-02-18T06:23:11.650Z,86.88
2023-02-18T06:24:13.516Z,86.71
2023-02-18T06:25:15.051Z,86.82
2023-02-18T06:26:16.606Z,86.88
2023-02-18T06:27:18.057Z,86.77
2023-02-18T06:28:19.873Z,86.25
2023-02-18T06:29:21.385Z,86.03
2023-02-18T06:30:24.323Z,86.18
2023-02-18T06:31:26.201Z,86.38
2023-02-18T06:32:27.873Z,86.55
2023-02-18T06:33:29.873Z,86.43
2023-02-18T06:34:31.331Z,86.55
2023-02-18T06:35:33.305Z,86.58
2023-02-18T06:36:34.799Z,86.46
2023-02-18T06:37:36.277Z,86.56
2023-02-18T06:38:42.971Z,86.28
2023-02-18T06:39:44.415Z,85.79
2023-02-18T06:40:47.409Z,86.30
2023-02-18T06:41:48.765Z,85.72
2023-02-18T06:42:50.205Z,85.96
2023-02-18T06:43:51.641Z,85.70
2023-02-18T06:44:53.185Z,85.60
2023-02-18T06:45:54.657Z,85.38
2023-02-18T06:46:56.215Z,84.94
2023-02-18T06:47:57.718Z,84.96
2023-02-18T06:48:59.151Z,84.74
2023-02-18T06:50:00.773Z,84.32
2023-02-18T06:51:02.415Z,84.07
2023-02-18T06:52:04.062Z,84.48
2023-02-18T06:53:05.631Z,84.53
2023-02-18T06:54:07.150Z,84.71
2023-02-18T06:55:09.536Z,84.23
2023-02-18T06:56:11.690Z,83.83
2023-02-18T06:57:13.102Z,83.41
2023-02-18T06:58:15.051Z,83.50
2023-02-18T06:59:16.600Z,83.61
2023-02-18T07:00:18.629Z,83.25
2023-02-18T07:01:20.133Z,83.30
2023-02-18T07:02:21.629Z,83.12
2023-02-18T07:03:23.123Z,83.42
2023-02-18T07:04:24.662Z,83.45
2023-02-18T07:05:26.160Z,83.58
2023-02-18T07:06:27.599Z,83.39
2023-02-18T07:07:29.180Z,83.39
2023-02-18T07:08:33.018Z,83.00
2023-02-18T07:09:34.450Z,83.07
2023-02-18T07:10:35.963Z,82.85
2023-02-18T07:11:37.411Z,82.77
2023-02-18T07:12:38.904Z,82.49
2023-02-18T07:13:40.366Z,82.35
2023-02-18T07:14:41.859Z,83.13
2023-02-18T07:15:43.463Z,82.91
2023-02-18T07:16:45.035Z,82.72
2023-02-18T07:17:46.594Z,82.93
2023-02-18T07:18:48.059Z,82.86
2023-02-18T07:19:49.502Z,82.57
2023-02-18T07:20:51.998Z,82.73
2023-02-18T07:21:57.488Z,82.37
2023-02-18T07:22:59.246Z,82.42
2023-02-18T07:24:00.696Z,81.84
2023-02-18T07:25:02.397Z,81.57
2023-02-18T07:26:06.406Z,81.78
2023-02-18T07:27:08.092Z,81.34
2023-02-18T07:28:09.555Z,81.64
2023-02-18T07:29:11.248Z,81.70
2023-02-18T07:30:13.465Z,81.99
2023-02-18T07:31:15.734Z,81.62
2023-02-18T07:32:19.037Z,82.00
2023-02-18T07:33:20.471Z,82.19
2023-02-18T07:34:21.989Z,82.44
2023-02-18T07:35:23.488Z,82.77
2023-02-18T07:36:24.949Z,83.04
2023-02-18T07:37:26.543Z,83.15
2023-02-18T07:38:28.703Z,83.10
2023-02-18T07:39:30.181Z,83.05
2023-02-18T07:40:31.664Z,83.06
2023-02-18T07:41:33.241Z,82.76
2023-02-18T07:42:34.669Z,82.43
2023-02-18T07:43:36.078Z,82.50
2023-02-18T07:44:38.308Z,82.62
2023-02-18T07:45:39.954Z,82.21
2023-02-18T07:46:42.354Z,81.93
2023-02-18T07:47:45.449Z,81.88
2023-02-18T07:48:47.092Z,81.97
2023-02-18T07:49:48.651Z,81.21
2023-02-18T07:50:50.099Z,81.06
2023-02-18T07:51:52.025Z,81.21
2023-02-18T07:52:53.471Z,80.82
2023-02-18T07:53:55.042Z,80.48
2023-02-18T07:54:56.535Z,80.44
2023-02-18T07:56:01.375Z,80.29
2023-02-18T07:57:02.906Z,80.22
2023-02-18T07:58:04.692Z,80.34
2023-02-18T07:59:06.480Z,80.15
2023-02-18T08:00:08.517Z,80.05
2023-02-18T08:01:12.244Z,80.13
2023-02-18T08:02:24.940Z,80.08
2023-02-18T08:03:30.408Z,79.60
2023-02-18T08:04:31.972Z,79.25
2023-02-18T08:05:33.522Z,79.20
2023-02-18T08:06:37.448Z,79.13
2023-02-18T08:07:40.318Z,79.39
2023-02-18T08:08:41.748Z,79.30
2023-02-18T08:09:43.833Z,79.21
2023-02-18T08:10:45.276Z,78.82
2023-02-18T08:11:46.790Z,78.92
2023-02-18T08:12:48.550Z,78.74
2023-02-18T08:13:50.140Z,78.67
2023-02-18T08:14:51.562Z,78.29
2023-02-18T08:15:56.272Z,78.66
2023-02-18T08:16:57.705Z,78.42
2023-02-18T08:17:59.978Z,78.09
2023-02-18T08:19:03.860Z,78.14
2023-02-18T08:20:06.013Z,78.23
2023-02-18T08:21:07.422Z,77.37
2023-02-18T08:22:11.199Z,77.11
2023-02-18T08:23:13.890Z,77.00
2023-02-18T08:24:15.333Z,76.82
2023-02-18T08:25:28.966Z,76.40
2023-02-18T08:26:31.273Z,76.29
2023-02-18T08:27:32.775Z,76.05
2023-02-18T08:28:34.272Z,75.55
2023-02-18T08:29:35.676Z,74.88
2023-02-18T08:30:37.200Z,74.09
2023-02-18T08:31:38.961Z,72.41
2023-02-18T08:32:40.802Z,70.62
2023-02-18T08:33:42.332Z,68.96
2023-02-18T08:34:43.874Z,67.96
2023-02-18T08:35:47.562Z,66.10
2023-02-18T08:36:49.158Z,64.88
2023-02-18T08:37:51.953Z,65.35
2023-02-18T08:38:55.471Z,65.59
2023-02-18T08:39:56.973Z,65.86
2023-02-18T08:41:07.562Z,66.89
2023-02-18T08:42:09.544Z,67.00
2023-02-18T08:43:11.505Z,67.14
2023-02-18T08:44:13.325Z,66.63
2023-02-18T08:45:14.793Z,66.48
2023-02-18T08:46:25.196Z,66.45
2023-02-18T08:48:17.565Z,67.17
2023-02-18T08:48:58.191Z,67.18
2023-02-18T08:49:59.847Z,67.61
2023-02-18T08:51:13.937Z,68.29
2023-02-18T08:52:15.420Z,68.75
2023-02-18T08:53:17.995Z,68.91
2023-02-18T08:54:19.481Z,69.03
2023-02-18T08:55:21.424Z,69.04
2023-02-18T08:56:22.851Z,69.57
2023-02-18T08:57:24.687Z,69.38
2023-02-18T08:58:26.111Z,69.51
2023-02-18T08:59:27.584Z,69.68
2023-02-18T09:00:29.063Z,69.67
2023-02-18T09:01:30.550Z,69.65
2023-02-18T09:02:32.687Z,69.35
2023-02-18T09:03:35.300Z,69.88
2023-02-18T09:04:36.759Z,69.52
2023-02-18T09:05:39.643Z,69.50
2023-02-18T09:06:41.036Z,69.03
2023-02-18T09:07:42.893Z,68.88
2023-02-18T09:08:45.033Z,68.77
2023-02-18T09:09:46.490Z,68.96
2023-02-18T09:10:47.997Z,68.87
2023-02-18T09:11:50.085Z,68.62
2023-02-18T09:12:51.715Z,68.46
2023-02-18T09:13:53.407Z,69.19
2023-02-18T09:14:54.824Z,68.93
2023-02-18T09:16:05.361Z,69.27
2023-02-18T09:17:07.039Z,69.51
2023-02-18T09:18:08.456Z,69.35
2023-02-18T09:19:10.253Z,69.41
2023-02-18T09:20:11.833Z,69.70
2023-02-18T09:21:16.138Z,69.14
2023-02-18T09:22:18.106Z,69.13
2023-02-18T09:23:21.187Z,69.40
2023-02-18T09:24:24.689Z,69.32
2023-02-18T09:25:26.128Z,69.38
2023-02-18T09:26:28.190Z,69.48
2023-02-18T09:27:29.640Z,69.38
2023-02-18T09:28:31.044Z,69.42
2023-02-18T09:29:33.296Z,69.37
2023-02-18T09:30:34.768Z,69.38
2023-02-18T09:31:40.456Z,69.61
2023-02-18T09:32:42.057Z,69.63
2023-02-18T09:33:46.980Z,69.47
2023-02-18T09:34:48.599Z,69.21
2023-02-18T09:35:50.136Z,69.66
2023-02-18T09:36:51.910Z,69.46
2023-02-18T09:37:53.435Z,69.48
2023-02-18T09:38:55.040Z,69.38
2023-02-18T09:39:56.491Z,69.48
2023-02-18T09:41:00.123Z,69.42
2023-02-18T09:42:05.536Z,69.85
2023-02-18T09:43:07.500Z,69.92
2023-02-18T09:44:34.443Z,70.05
2023-02-18T09:45:35.958Z,70.14
2023-02-18T09:46:48.438Z,69.94
2023-02-18T09:47:51.674Z,70.21
2023-02-18T09:48:53.179Z,69.77
2023-02-18T09:49:59.847Z,69.38
2023-02-18T09:51:01.616Z,69.52
2023-02-18T09:52:30.890Z,69.60
2023-02-18T09:53:32.346Z,69.19
2023-02-18T09:54:33.770Z,69.30
2023-02-18T09:55:39.705Z,69.42
2023-02-18T09:56:42.976Z,69.59
2023-02-18T09:57:48.468Z,69.70
2023-02-18T09:58:50.834Z,69.48
2023-02-18T10:00:05.430Z,69.65
2023-02-18T10:01:11.672Z,69.57
2023-02-18T10:02:17.526Z,69.71
2023-02-18T10:03:22.305Z,69.13
2023-02-18T10:04:52.151Z,69.38
2023-02-18T10:06:02.048Z,69.44
2023-02-18T10:07:04.167Z,69.22
2023-02-18T10:08:29.519Z,68.62
2023-02-18T10:09:40.982Z,68.67
2023-02-18T10:10:46.311Z,68.98
2023-02-18T10:11:55.862Z,69.01
2023-02-18T10:12:58.567Z,68.65
2023-02-18T10:14:02.757Z,68.63
2023-02-18T10:15:18.821Z,68.46
2023-02-18T10:16:22.741Z,68.22
2023-02-18T10:17:27.361Z,68.58
2023-02-18T10:18:36.170Z,67.98
2023-02-18T10:19:41.014Z,67.91
2023-02-18T10:20:42.941Z,67.98
2023-02-18T10:21:45.303Z,67.58
2023-02-18T10:22:47.063Z,68.02
2023-02-18T10:24:02.368Z,67.72
2023-02-18T10:25:07.038Z,67.39
2023-02-18T10:26:16.239Z,67.67
2023-02-18T10:27:32.784Z,67.25
2023-02-18T10:28:36.856Z,66.91
2023-02-18T10:29:38.354Z,67.01
2023-02-18T10:30:51.837Z,66.50
2023-02-18T10:32:04.776Z,66.18
2023-02-18T10:33:39.958Z,64.74
2023-02-18T10:35:13.548Z,64.17
2023-02-18T10:36:47.354Z,64.35
2023-02-18T10:38:00.266Z,64.39
2023-02-18T10:39:09.235Z,64.18
2023-02-18T10:40:42.879Z,63.93
2023-02-18T10:41:47.487Z,64.23
2023-02-18T10:42:48.898Z,63.94
2023-02-18T10:44:16.900Z,64.01
2023-02-18T10:45:32.532Z,64.09
2023-02-18T10:47:01.892Z,64.27
2023-02-18T10:48:41.665Z,64.28
2023-02-18T10:49:51.999Z,63.42
2023-02-18T10:50:53.692Z,63.60
2023-02-18T10:51:57.957Z,63.02
2023-02-18T10:53:29.450Z,63.38
2023-02-18T10:54:57.510Z,63.20
2023-02-18T10:55:59.130Z,63.35
2023-02-18T10:57:01.112Z,62.52
2023-02-18T10:58:03.924Z,62.40
2023-02-18T10:59:34.904Z,62.11
2023-02-18T11:00:40.263Z,61.47
2023-02-18T11:01:43.777Z,61.80
2023-02-18T11:02:46.598Z,61.76
2023-02-18T11:03:49.136Z,61.89
2023-02-18T11:04:50.759Z,61.88
2023-02-18T11:05:56.304Z,61.74
2023-02-18T11:07:05.499Z,61.95
2023-02-18T11:08:11.254Z,62.37
2023-02-18T11:09:34.977Z,62.39
2023-02-18T11:10:40.770Z,62.56
2023-02-18T11:11:42.785Z,62.76
2023-02-18T11:12:57.059Z,62.98
2023-02-18T11:14:01.885Z,62.61
2023-02-18T11:15:15.546Z,62.73
2023-02-18T11:16:17.464Z,63.00
2023-02-18T11:17:27.557Z,63.34
2023-02-18T11:18:42.732Z,63.25
2023-02-18T11:19:51.373Z,63.44
2023-02-18T11:21:21.481Z,63.41
2023-02-18T11:22:28.884Z,64.15
2023-02-18T11:23:30.981Z,64.09
2023-02-18T11:24:32.520Z,63.71
2023-02-18T11:25:36.094Z,64.13
2023-02-18T11:26:39.840Z,64.01
2023-02-18T11:27:48.859Z,64.22
2023-02-18T11:28:51.504Z,64.68
2023-02-18T11:30:01.073Z,64.38
2023-02-18T11:31:05.191Z,64.72
2023-02-18T11:32:11.655Z,64.23
2023-02-18T11:33:24.783Z,64.29
2023-02-18T11:34:32.802Z,64.58
2023-02-18T11:35:35.295Z,64.70
2023-02-18T11:36:38.723Z,64.30
2023-02-18T11:37:40.318Z,64.14
2023-02-18T11:38:52.906Z,63.75
2023-02-18T11:39:56.523Z,64.00
2023-02-18T11:41:07.899Z,64.01
2023-02-18T11:42:14.561Z,63.88
2023-02-18T11:43:19.789Z,63.63
2023-02-18T11:44:28.475Z,63.82
2023-02-18T11:45:33.935Z,63.32
2023-02-18T11:46:35.560Z,63.79
2023-02-18T11:47:37.835Z,63.35
2023-02-18T11:48:39.542Z,63.61
2023-02-18T11:49:43.143Z,63.84
2023-02-18T11:50:45.896Z,64.02
2023-02-18T11:51:48.566Z,64.02
2023-02-18T11:52:52.026Z,63.70
2023-02-18T11:54:02.901Z,63.44
2023-02-18T11:55:27.576Z,63.20
2023-02-18T11:56:35.434Z,63.24
2023-02-18T11:57:41.264Z,63.27
2023-02-18T11:58:48.205Z,63.54
2023-02-18T11:59:49.723Z,63.75
2023-02-18T12:00:55.955Z,63.14
2023-02-18T12:02:06.188Z,63.06
2023-02-18T12:03:15.106Z,63.40
2023-02-18T12:04:43.753Z,63.63
2023-02-18T12:05:45.945Z,63.27
2023-02-18T12:07:15.349Z,63.39
2023-02-18T12:08:27.425Z,63.71
2023-02-18T12:09:34.504Z,63.57
2023-02-18T12:10:52.152Z,64.02
2023-02-18T12:12:01.007Z,64.08
2023-02-18T12:13:10.737Z,63.45
2023-02-18T12:14:18.244Z,63.88
2023-02-18T12:15:32.437Z,63.50
2023-02-18T12:16:58.319Z,63.60
2023-02-18T12:18:27.115Z,63.57
2023-02-18T12:19:37.649Z,63.41
2023-02-18T12:20:53.925Z,63.53
2023-02-18T12:21:58.440Z,63.47
2023-02-18T12:23:15.356Z,63.36
2023-02-18T12:24:29.076Z,63.57
2023-02-18T12:25:49.892Z,63.75
2023-02-18T12:27:05.218Z,64.08
2023-02-18T12:28:36.317Z,63.72
2023-02-18T12:30:09.004Z,63.59
2023-02-18T12:31:26.208Z,63.65
2023-02-18T12:32:49.421Z,63.38
2023-02-18T12:34:23.011Z,64.08
2023-02-18T12:35:36.269Z,63.88
2023-02-18T12:36:46.720Z,63.85
2023-02-18T12:38:01.885Z,63.68
2023-02-18T12:39:12.230Z,63.90
2023-02-18T12:40:55.829Z,64.46
2023-02-18T12:41:59.992Z,63.91
2023-02-18T12:43:15.781Z,63.63
2023-02-18T12:44:34.460Z,63.74
2023-02-18T12:46:09.809Z,63.89
2023-02-18T12:47:48.502Z,63.73
2023-02-18T12:49:18.862Z,63.32
2023-02-18T12:50:50.528Z,63.51
2023-02-18T12:52:27.939Z,64.04
2023-02-18T12:53:47.928Z,63.50
2023-02-18T12:55:08.152Z,63.75
2023-02-18T12:56:55.729Z,63.74
2023-02-18T12:58:39.207Z,63.97
2023-02-18T13:00:01.122Z,64.27
2023-02-18T13:01:21.941Z,64.38
2023-02-18T13:02:41.483Z,64.24
2023-02-18T13:03:43.867Z,64.14
2023-02-18T13:05:04.753Z,64.02
2023-02-18T13:06:27.528Z,63.99
2023-02-18T13:07:56.365Z,64.16
2023-02-18T13:09:15.310Z,63.88
2023-02-18T13:10:25.783Z,63.84
2023-02-18T13:11:40.559Z,63.51
2023-02-18T13:12:50.968Z,63.12
2023-02-18T13:13:58.040Z,63.27
2023-02-18T13:15:13.709Z,63.34
2023-02-18T13:16:19.822Z,63.25
2023-02-18T13:17:21.916Z,63.36
2023-02-18T13:18:39.298Z,63.25
2023-02-18T13:19:52.002Z,62.92
2023-02-18T13:21:01.080Z,63.12
2023-02-18T13:22:04.592Z,62.73
2023-02-18T13:23:06.495Z,62.90
2023-02-18T13:24:12.982Z,63.02
2023-02-18T13:25:15.425Z,62.95
2023-02-18T13:26:18.909Z,63.01
2023-02-18T13:27:24.682Z,62.87
2023-02-18T13:28:37.607Z,63.09
2023-02-18T13:29:52.562Z,63.41
2023-02-18T13:31:21.893Z,63.39
2023-02-18T13:32:50.950Z,63.25
2023-02-18T13:34:07.505Z,63.04
2023-02-18T13:35:32.524Z,63.01
2023-02-18T13:36:43.174Z,62.93
2023-02-18T13:37:55.741Z,63.04
2023-02-18T13:39:06.598Z,62.80
2023-02-18T13:40:19.741Z,63.20
2023-02-18T13:41:21.716Z,63.16
2023-02-18T13:42:32.839Z,63.46
2023-02-18T13:43:35.985Z,63.27
2023-02-18T13:45:01.786Z,63.11
2023-02-18T13:46:18.850Z,63.50
2023-02-18T13:47:40.454Z,63.56
2023-02-18T13:48:52.895Z,63.46
2023-02-18T13:49:55.423Z,63.54
2023-02-18T13:51:04.902Z,63.63
2023-02-18T13:52:07.680Z,63.52
2023-02-18T13:53:09.304Z,63.75
2023-02-18T13:54:15.439Z,64.11
2023-02-18T13:55:20.280Z,63.80
2023-02-18T13:56:29.109Z,63.90
2023-02-18T13:57:30.728Z,63.99
2023-02-18T13:58:43.210Z,63.77
2023-02-18T13:59:49.179Z,63.63
2023-02-18T14:00:55.957Z,64.09
2023-02-18T14:02:22.327Z,63.66
2023-02-18T14:03:44.039Z,63.72
2023-02-18T14:04:45.663Z,63.80
2023-02-18T14:05:47.430Z,64.09
2023-02-18T14:07:23.074Z,64.03
2023-02-18T14:08:36.639Z,64.11
2023-02-18T14:09:43.357Z,64.05
2023-02-18T14:11:14.390Z,64.29
2023-02-18T14:12:30.866Z,63.80
2023-02-18T14:14:17.137Z,64.27
2023-02-18T14:15:18.500Z,64.19